createdAt,value
2018-09-17T00:01:33.021Z,15.20
2018-09-17T00:04:00.778Z,15.10
2018-09-17T00:06:28.509Z,15.20
2018-09-17T00:08:56.249Z,14.90
2018-09-17T00:11:23.968Z,14.90
2018-09-17T00:13:51.714Z,14.90
2018-09-17T00:16:19.432Z,15.10
2018-09-17T00:18:47.295Z,15.20
2018-09-17T00:21:15.076Z,15.10
2018-09-17T00:23:42.825Z,15.00
2018-09-17T00:26:10.624Z,14.90
2018-09-17T00:28:38.348Z,15.00
2018-09-17T00:31:06.150Z,14.80
2018-09-17T00:33:35.080Z,15.00
2018-09-17T00:36:02.906Z,14.50
2018-09-17T00:38:30.611Z,14.50
2018-09-17T00:40:58.365Z,15.00
2018-09-17T00:43:26.080Z,14.40
2018-09-17T00:45:53.832Z,14.60
2018-09-17T00:48:21.555Z,14.40
2018-09-17T00:50:49.306Z,14.60
2018-09-17T00:53:17.024Z,14.40
2018-09-17T00:55:44.788Z,14.50
2018-09-17T00:58:12.521Z,14.60
2018-09-17T01:00:40.274Z,14.60
2018-09-17T01:03:08.012Z,14.50
2018-09-17T01:05:35.765Z,14.50
2018-09-17T01:08:03.532Z,14.60
2018-09-17T01:10:31.324Z,14.30
2018-09-17T01:12:59.072Z,14.00
2018-09-17T01:15:26.805Z,14.00
2018-09-17T01:17:54.576Z,14.40
2018-09-17T01:20:22.945Z,13.90
2018-09-17T01:22:50.689Z,14.30
2018-09-17T01:25:18.420Z,14.00
2018-09-17T01:27:46.177Z,14.40
2018-09-17T01:30:13.931Z,13.90
2018-09-17T01:32:41.669Z,13.90
2018-09-17T01:35:09.435Z,14.10
2018-09-17T01:37:37.183Z,13.90
2018-09-17T01:40:04.934Z,14.00
2018-09-17T01:42:32.722Z,14.00
2018-09-17T01:45:00.493Z,14.00
2018-09-17T01:47:28.225Z,13.90
2018-09-17T01:49:55.971Z,14.00
2018-09-17T01:52:23.678Z,13.80
2018-09-17T01:54:51.421Z,13.90
2018-09-17T01:57:19.131Z,14.00
2018-09-17T01:59:46.932Z,13.80
2018-09-17T02:02:14.641Z,13.90
2018-09-17T02:04:42.564Z,13.90
2018-09-17T02:07:10.296Z,13.90
2018-09-17T02:09:39.514Z,14.00
2018-09-17T02:12:08.688Z,13.80
2018-09-17T02:14:36.429Z,13.80
2018-09-17T02:17:04.453Z,13.80
2018-09-17T02:19:32.184Z,13.90
2018-09-17T02:21:59.939Z,13.80
2018-09-17T02:24:27.861Z,13.90
2018-09-17T02:26:55.602Z,13.80
2018-09-17T02:29:23.358Z,13.80
2018-09-17T02:31:51.093Z,13.80
2018-09-17T02:34:18.847Z,13.90
2018-09-17T02:36:47.100Z,13.80
2018-09-17T02:39:14.838Z,13.70
2018-09-17T02:41:42.564Z,13.80
2018-09-17T02:44:10.271Z,13.40
2018-09-17T02:46:38.042Z,13.80
2018-09-17T02:49:05.773Z,13.40
2018-09-17T02:51:33.516Z,13.80
2018-09-17T02:54:01.236Z,13.70
2018-09-17T02:56:29.002Z,13.90
2018-09-17T02:58:56.744Z,13.60
2018-09-17T03:01:24.583Z,13.50
2018-09-17T03:03:52.329Z,13.80
2018-09-17T03:06:20.069Z,13.50
2018-09-17T03:08:47.828Z,13.80
2018-09-17T03:11:15.597Z,13.80
2018-09-17T03:13:43.357Z,13.80
2018-09-17T03:16:11.095Z,13.90
2018-09-17T03:18:55.273Z,13.80
2018-09-17T03:21:23.013Z,13.90
2018-09-17T03:23:50.801Z,14.00
2018-09-17T03:26:18.929Z,14.00
2018-09-17T03:28:46.688Z,13.80
2018-09-17T03:31:14.421Z,13.80
2018-09-17T03:33:42.144Z,13.90
2018-09-17T03:36:09.959Z,14.00
2018-09-17T03:38:48.760Z,14.00
2018-09-17T03:41:17.551Z,13.70
2018-09-17T03:43:50.316Z,13.80
2018-09-17T03:46:18.085Z,13.50
2018-09-17T03:48:45.881Z,13.70
2018-09-17T03:51:13.992Z,13.40
2018-09-17T03:53:42.197Z,13.40
2018-09-17T03:56:09.929Z,13.40
2018-09-17T03:58:37.674Z,13.30
2018-09-17T04:01:05.711Z,13.60
2018-09-17T04:03:33.520Z,13.40
2018-09-17T04:06:01.262Z,13.40
2018-09-17T04:08:29.672Z,13.40
2018-09-17T04:10:57.469Z,13.30
2018-09-17T04:13:25.208Z,13.30
2018-09-17T04:15:52.965Z,13.20
2018-09-17T04:18:20.680Z,13.50
2018-09-17T04:20:48.444Z,13.40
2018-09-17T04:23:35.968Z,13.40
2018-09-17T04:26:06.896Z,13.80
2018-09-17T04:28:35.252Z,13.40
2018-09-17T04:31:03.021Z,13.50
2018-09-17T04:33:41.683Z,13.30
2018-09-17T04:36:10.237Z,13.80
2018-09-17T04:38:37.953Z,13.60
2018-09-17T04:41:05.716Z,13.40
2018-09-17T04:43:33.492Z,13.80
2018-09-17T04:46:01.272Z,13.70
2018-09-17T04:48:29.389Z,14.00
2018-09-17T04:50:57.183Z,13.90
2018-09-17T04:53:24.924Z,13.90
2018-09-17T04:55:52.659Z,13.70
2018-09-17T04:58:20.431Z,13.80
2018-09-17T05:00:48.382Z,13.70
2018-09-17T05:03:16.114Z,13.80
2018-09-17T05:05:43.860Z,13.80
2018-09-17T05:08:11.580Z,13.60
2018-09-17T05:10:39.339Z,13.80
2018-09-17T05:13:07.144Z,13.80
2018-09-17T05:15:34.873Z,13.50
2018-09-17T05:18:02.608Z,13.80
2018-09-17T05:20:30.521Z,13.70
2018-09-17T05:22:58.212Z,13.80
2018-09-17T05:25:25.965Z,13.80
2018-09-17T05:27:53.711Z,13.70
2018-09-17T05:30:21.445Z,13.90
2018-09-17T05:32:49.237Z,14.00
2018-09-17T05:35:16.985Z,13.80
2018-09-17T05:37:44.787Z,13.80
2018-09-17T05:40:12.531Z,13.40
2018-09-17T05:42:40.263Z,13.60
2018-09-17T05:45:08.069Z,13.80
2018-09-17T05:47:35.825Z,13.80
2018-09-17T05:50:03.657Z,13.80
2018-09-17T05:52:31.407Z,14.00
2018-09-17T05:54:59.174Z,13.80
2018-09-17T05:57:26.904Z,13.90
2018-09-17T05:59:54.955Z,13.80
2018-09-17T06:02:22.677Z,13.70
2018-09-17T06:04:50.417Z,13.80
2018-09-17T06:07:18.154Z,13.90
2018-09-17T06:09:45.986Z,13.90
2018-09-17T06:12:13.707Z,13.80
2018-09-17T06:14:41.501Z,14.30
2018-09-17T06:17:09.204Z,14.20
2018-09-17T06:19:37.021Z,14.20
2018-09-17T06:22:04.793Z,14.10
2018-09-17T06:24:32.552Z,14.40
2018-09-17T06:27:00.315Z,14.30
2018-09-17T06:29:28.034Z,14.30
2018-09-17T06:31:55.827Z,14.30
2018-09-17T06:34:23.606Z,14.50
2018-09-17T06:36:51.422Z,14.30
2018-09-17T06:39:19.151Z,14.40
2018-09-17T06:41:46.908Z,14.50
2018-09-17T06:44:14.641Z,14.50
2018-09-17T06:46:42.380Z,14.40
2018-09-17T06:49:10.105Z,14.40
2018-09-17T06:51:37.929Z,14.80
2018-09-17T06:54:05.678Z,15.00
2018-09-17T06:56:33.431Z,15.20
2018-09-17T06:59:01.221Z,15.20
2018-09-17T07:01:28.997Z,15.40
2018-09-17T07:03:56.775Z,15.00
2018-09-17T07:06:24.535Z,15.00
2018-09-17T07:08:52.326Z,15.50
2018-09-17T07:11:20.090Z,15.40
2018-09-17T07:13:47.875Z,15.40
2018-09-17T07:16:15.642Z,15.50
2018-09-17T07:18:43.445Z,15.70
2018-09-17T07:21:11.238Z,16.00
2018-09-17T07:23:38.971Z,16.10
2018-09-17T07:26:06.815Z,16.10
2018-09-17T07:28:34.671Z,16.20
2018-09-17T07:31:02.528Z,16.20
2018-09-17T07:33:30.248Z,16.20
2018-09-17T07:35:58.020Z,16.20
2018-09-17T07:38:25.772Z,16.70
2018-09-17T07:40:53.871Z,16.80
2018-09-17T07:43:21.608Z,16.70
2018-09-17T07:45:49.322Z,16.80
2018-09-17T07:48:17.077Z,16.70
2018-09-17T07:50:44.821Z,16.90
2018-09-17T07:53:12.625Z,16.90
2018-09-17T07:55:40.330Z,17.00
2018-09-17T07:58:08.069Z,17.00
2018-09-17T08:00:35.800Z,17.30
2018-09-17T08:03:03.557Z,17.70
2018-09-17T08:05:31.298Z,18.30
2018-09-17T08:07:59.088Z,18.20
2018-09-17T08:10:26.843Z,18.50
2018-09-17T08:12:54.629Z,18.20
2018-09-17T08:15:22.457Z,18.80
2018-09-17T08:17:51.391Z,19.20
2018-09-17T08:20:19.181Z,19.30
2018-09-17T08:22:46.960Z,19.90
2018-09-17T08:25:14.695Z,20.30
2018-09-17T08:27:42.445Z,20.80
2018-09-17T08:30:10.240Z,20.80
2018-09-17T08:32:37.978Z,22.30
2018-09-17T08:35:06.617Z,23.30
2018-09-17T08:37:34.364Z,22.60
2018-09-17T08:40:02.154Z,21.50
2018-09-17T08:42:29.878Z,22.30
2018-09-17T08:44:57.588Z,22.50
2018-09-17T08:47:25.348Z,22.70
2018-09-17T08:49:53.153Z,23.60
2018-09-17T08:52:20.926Z,22.60
2018-09-17T08:54:54.343Z,22.60
2018-09-17T08:57:27.724Z,23.90
2018-09-17T09:00:02.157Z,24.50
2018-09-17T09:02:35.553Z,25.30
2018-09-17T09:05:08.936Z,26.20
2018-09-17T09:07:42.183Z,26.80
2018-09-17T09:10:15.646Z,27.20
2018-09-17T09:12:48.349Z,27.00
2018-09-17T09:15:18.002Z,26.80
2018-09-17T09:17:45.729Z,26.60
2018-09-17T09:20:13.447Z,25.60
2018-09-17T09:22:41.201Z,25.70
2018-09-17T09:25:08.976Z,27.00
2018-09-17T09:27:36.769Z,27.50
2018-09-17T09:30:04.638Z,27.20
2018-09-17T09:32:32.335Z,28.30
2018-09-17T09:35:00.057Z,27.90
2018-09-17T09:37:27.764Z,29.00
2018-09-17T09:39:55.493Z,28.70
2018-09-17T09:42:23.195Z,29.10
2018-09-17T09:44:50.909Z,30.30
2018-09-17T09:47:18.595Z,32.30
2018-09-17T09:49:46.338Z,33.30
2018-09-17T09:52:14.061Z,33.70
2018-09-17T09:54:41.792Z,34.40
2018-09-17T09:57:09.508Z,32.70
2018-09-17T09:59:37.277Z,31.00
2018-09-17T10:02:10.761Z,31.10
2018-09-17T10:04:38.494Z,33.40
2018-09-17T10:07:06.209Z,36.30
2018-09-17T10:09:39.500Z,35.90
2018-09-17T10:12:12.894Z,34.50
2018-09-17T10:14:46.310Z,34.00
2018-09-17T10:17:19.700Z,31.70
2018-09-17T10:19:50.436Z,32.10
2018-09-17T10:22:18.884Z,33.30
2018-09-17T10:24:46.621Z,35.10
2018-09-17T10:27:15.052Z,34.70
2018-09-17T10:29:42.787Z,35.10
2018-09-17T10:32:10.809Z,35.10
2018-09-17T10:34:38.516Z,37.50
2018-09-17T10:37:06.255Z,32.20
2018-09-17T10:39:34.006Z,30.20
2018-09-17T10:42:01.738Z,31.90
2018-09-17T10:44:29.455Z,34.30
2018-09-17T10:46:57.205Z,33.90
2018-09-17T10:49:24.918Z,33.40
2018-09-17T10:51:52.638Z,32.60
2018-09-17T10:54:20.361Z,33.10
2018-09-17T10:56:48.060Z,33.70
2018-09-17T10:59:15.793Z,34.50
2018-09-17T11:01:43.519Z,36.30
2018-09-17T11:04:11.341Z,35.80
2018-09-17T11:06:39.139Z,35.20
2018-09-17T11:09:08.784Z,34.50
2018-09-17T11:11:36.524Z,34.20
2018-09-17T11:14:04.280Z,34.40
2018-09-17T11:16:32.034Z,33.60
2018-09-17T11:18:59.737Z,34.70
2018-09-17T11:21:27.468Z,32.10
2018-09-17T11:23:55.181Z,32.00
2018-09-17T11:26:22.907Z,33.20
2018-09-17T11:28:50.625Z,33.00
2018-09-17T11:31:18.781Z,32.00
2018-09-17T11:33:46.542Z,32.90
2018-09-17T11:36:14.313Z,33.20
2018-09-17T11:38:42.089Z,33.30
2018-09-17T11:41:09.891Z,32.00
2018-09-17T11:43:37.607Z,31.70
2018-09-17T11:46:05.382Z,31.60
2018-09-17T11:48:33.152Z,33.20
2018-09-17T11:51:01.056Z,33.80
2018-09-17T11:53:29.045Z,33.20
2018-09-17T11:55:56.880Z,31.90
2018-09-17T11:58:24.603Z,32.70
2018-09-17T12:00:58.109Z,32.30
2018-09-17T12:04:29.285Z,32.80
2018-09-17T12:07:02.768Z,31.90
2018-09-17T12:09:30.521Z,33.00
2018-09-17T12:11:58.278Z,33.20
2018-09-17T12:14:26.059Z,33.70
2018-09-17T12:16:53.772Z,32.00
2018-09-17T12:19:21.488Z,31.80
2018-09-17T12:21:49.230Z,31.70
2018-09-17T12:24:16.942Z,32.50
2018-09-17T12:26:44.681Z,32.80
2018-09-17T12:29:12.401Z,33.80
2018-09-17T12:31:40.112Z,33.30
2018-09-17T12:34:07.823Z,33.60
2018-09-17T12:36:35.589Z,34.40
2018-09-17T12:39:05.378Z,34.50
2018-09-17T12:41:33.076Z,33.40
2018-09-17T12:44:00.875Z,32.80
2018-09-17T12:46:28.628Z,32.70
2018-09-17T12:48:56.368Z,32.70
2018-09-17T12:51:24.069Z,33.20
2018-09-17T12:53:51.943Z,33.00
2018-09-17T12:56:19.660Z,33.40
2018-09-17T12:58:47.522Z,32.20
2018-09-17T13:01:15.265Z,31.70
2018-09-17T13:03:42.977Z,31.60
2018-09-17T13:06:10.721Z,32.90
2018-09-17T13:08:38.458Z,32.20
2018-09-17T13:11:06.253Z,32.00
2018-09-17T13:13:36.887Z,31.90
2018-09-17T13:16:05.080Z,31.70
2018-09-17T13:18:32.845Z,32.60
2018-09-17T13:21:00.605Z,33.20
2018-09-17T13:23:28.360Z,33.20
2018-09-17T13:25:56.164Z,33.80
2018-09-17T13:28:23.880Z,34.40
2018-09-17T13:30:51.600Z,34.10
2018-09-17T13:33:19.419Z,33.80
2018-09-17T13:35:47.285Z,31.70
2018-09-17T13:38:15.042Z,31.90
2018-09-17T13:40:42.834Z,33.00
2018-09-17T13:43:10.640Z,32.30
2018-09-17T13:45:38.541Z,32.10
2018-09-17T13:48:06.408Z,32.00
2018-09-17T13:50:34.152Z,31.80
2018-09-17T13:53:01.883Z,32.00
2018-09-17T13:55:29.642Z,32.30
2018-09-17T13:57:57.369Z,32.00
2018-09-17T14:00:25.121Z,31.60
2018-09-17T14:02:53.106Z,32.00
2018-09-17T14:05:20.905Z,32.50
2018-09-17T14:07:48.630Z,33.00
2018-09-17T14:10:16.518Z,33.60
2018-09-17T14:12:44.130Z,33.10
2018-09-17T14:15:11.886Z,32.60
2018-09-17T14:17:39.693Z,32.80
2018-09-17T14:20:07.464Z,32.80
2018-09-17T14:22:35.364Z,33.00
2018-09-17T14:25:03.136Z,31.70
2018-09-17T14:27:30.977Z,31.80
2018-09-17T14:29:58.719Z,31.70
2018-09-17T14:32:32.152Z,31.90
2018-09-17T14:34:59.879Z,32.00
2018-09-17T14:37:27.660Z,32.00
2018-09-17T14:39:55.449Z,33.20
2018-09-17T14:42:23.205Z,33.00
2018-09-17T14:44:51.016Z,33.30
2018-09-17T14:47:18.743Z,32.50
2018-09-17T14:49:46.522Z,33.00
2018-09-17T14:52:14.337Z,33.00
2018-09-17T14:54:42.165Z,32.40
2018-09-17T14:57:09.797Z,31.30
2018-09-17T14:59:37.626Z,30.50
2018-09-17T15:02:05.457Z,30.60
2018-09-17T15:04:33.162Z,30.40
2018-09-17T15:07:01.012Z,29.70
2018-09-17T15:09:28.791Z,29.30
2018-09-17T15:11:56.544Z,29.40
2018-09-17T15:14:24.591Z,29.00
2018-09-17T15:16:52.241Z,28.90
2018-09-17T15:19:20.028Z,29.10
2018-09-17T15:21:47.740Z,29.40
2018-09-17T15:24:15.509Z,29.20
2018-09-17T15:26:43.317Z,29.50
2018-09-17T15:29:11.107Z,29.20
2018-09-17T15:31:38.840Z,29.90
2018-09-17T15:34:06.679Z,29.80
2018-09-17T15:36:34.410Z,29.90
2018-09-17T15:39:02.278Z,30.00
2018-09-17T15:41:30.065Z,29.80
2018-09-17T15:43:57.807Z,29.60
2018-09-17T15:46:25.513Z,29.40
2018-09-17T15:48:53.241Z,28.90
2018-09-17T15:51:20.965Z,29.40
2018-09-17T15:53:48.718Z,29.20
2018-09-17T15:56:16.508Z,29.50
2018-09-17T15:58:44.219Z,29.20
2018-09-17T16:01:12.013Z,29.20
2018-09-17T16:03:39.783Z,29.30
2018-09-17T16:06:07.514Z,28.90
2018-09-17T16:08:35.351Z,29.10
2018-09-17T16:11:03.059Z,29.00
2018-09-17T16:13:30.861Z,28.80
2018-09-17T16:15:58.573Z,29.00
2018-09-17T16:18:26.333Z,28.60
2018-09-17T16:20:54.068Z,28.60
2018-09-17T16:23:21.805Z,28.60
2018-09-17T16:25:49.635Z,28.50
2018-09-17T16:28:17.424Z,28.20
2018-09-17T16:30:45.186Z,28.10
2018-09-17T16:33:12.899Z,27.80
2018-09-17T16:35:40.617Z,28.10
2018-09-17T16:38:08.357Z,28.00
2018-09-17T16:40:36.141Z,27.70
2018-09-17T16:43:03.888Z,27.60
2018-09-17T16:45:31.609Z,27.50
2018-09-17T16:47:59.350Z,27.30
2018-09-17T16:50:27.083Z,27.10
2018-09-17T16:52:54.934Z,26.80
2018-09-17T16:55:22.643Z,26.60
2018-09-17T16:57:50.435Z,26.70
2018-09-17T17:00:18.214Z,26.70
2018-09-17T17:02:45.963Z,26.70
2018-09-17T17:05:13.689Z,26.20
2018-09-17T17:07:41.435Z,26.50
2018-09-17T17:10:09.770Z,26.40
2018-09-17T17:12:37.482Z,25.70
2018-09-17T17:15:05.400Z,25.80
2018-09-17T17:17:33.130Z,25.70
2018-09-17T17:20:00.874Z,25.60
2018-09-17T17:22:28.633Z,25.80
2018-09-17T17:24:56.363Z,25.40
2018-09-17T17:27:24.100Z,25.20
2018-09-17T17:29:51.850Z,24.90
2018-09-17T17:32:19.713Z,24.90
2018-09-17T17:34:47.507Z,24.70
2018-09-17T17:37:15.278Z,24.80
2018-09-17T17:39:43.224Z,24.10
2018-09-17T17:42:10.881Z,24.20
2018-09-17T17:44:38.644Z,24.20
2018-09-17T17:47:06.531Z,24.40
2018-09-17T17:49:34.293Z,23.80
2018-09-17T17:52:02.170Z,23.80
2018-09-17T17:54:29.856Z,23.90
2018-09-17T17:56:57.533Z,23.70
2018-09-17T17:59:25.484Z,23.70
2018-09-17T18:01:53.305Z,23.80
2018-09-17T18:04:21.102Z,23.60
2018-09-17T18:06:48.960Z,23.60
2018-09-17T18:09:16.654Z,23.20
2018-09-17T18:11:44.411Z,23.30
2018-09-17T18:14:12.182Z,23.60
2018-09-17T18:16:39.929Z,22.90
2018-09-17T18:19:07.646Z,22.90
2018-09-17T18:21:35.502Z,23.10
2018-09-17T18:24:03.184Z,23.10
2018-09-17T18:26:30.976Z,22.90
2018-09-17T18:28:58.712Z,23.00
2018-09-17T18:31:26.441Z,23.00
2018-09-17T18:33:54.197Z,22.80
2018-09-17T18:36:22.076Z,22.80
2018-09-17T18:38:49.932Z,22.60
2018-09-17T18:41:17.604Z,22.40
2018-09-17T18:43:45.501Z,22.20
2018-09-17T18:46:13.612Z,22.20
2018-09-17T18:48:41.525Z,22.20
2018-09-17T18:51:09.696Z,22.20
2018-09-17T18:53:37.420Z,22.10
2018-09-17T18:56:05.296Z,22.10
2018-09-17T18:58:33.394Z,22.10
2018-09-17T19:01:01.193Z,22.30
2018-09-17T19:03:28.979Z,22.20
2018-09-17T19:05:56.882Z,21.90
2018-09-17T19:08:24.514Z,22.00
2018-09-17T19:10:52.277Z,22.00
2018-09-17T19:13:20.464Z,21.90
2018-09-17T19:15:48.748Z,22.00
2018-09-17T19:18:18.266Z,21.60
2018-09-17T19:20:48.120Z,21.50
2018-09-17T19:23:21.343Z,21.50
2018-09-17T19:25:49.190Z,21.50
2018-09-17T19:28:22.534Z,21.60
2018-09-17T19:30:50.355Z,21.60
2018-09-17T19:33:18.081Z,21.30
2018-09-17T19:35:45.928Z,21.50
2018-09-17T19:38:19.291Z,21.50
2018-09-17T19:40:47.073Z,21.50
2018-09-17T19:43:14.800Z,21.00
2018-09-17T19:45:48.357Z,21.00
2018-09-17T19:48:16.171Z,21.30
2018-09-17T19:50:49.734Z,21.40
2018-09-17T19:53:17.501Z,21.20
2018-09-17T19:55:45.529Z,21.40
2018-09-17T19:59:22.589Z,21.30
2018-09-17T20:01:50.325Z,20.90
2018-09-17T20:04:23.724Z,20.80
2018-09-17T20:06:51.641Z,20.90
2018-09-17T20:09:19.392Z,20.70
2018-09-17T20:11:47.120Z,20.80
2018-09-17T20:14:14.901Z,20.80
2018-09-17T20:16:42.625Z,20.70
2018-09-17T20:19:10.389Z,20.70
2018-09-17T20:21:38.105Z,20.40
2018-09-17T20:24:05.886Z,20.90
2018-09-17T20:26:33.917Z,21.00
2018-09-17T20:29:01.642Z,20.80
2018-09-17T20:31:29.386Z,20.80
2018-09-17T20:33:57.149Z,20.70
2018-09-17T20:36:24.896Z,20.70
2018-09-17T20:38:52.746Z,20.80
2018-09-17T20:41:20.467Z,20.50
2018-09-17T20:43:48.219Z,21.00
2018-09-17T20:46:15.939Z,20.80
2018-09-17T20:48:43.696Z,21.10
2018-09-17T20:51:11.428Z,21.10
2018-09-17T20:53:39.165Z,21.00
2018-09-17T20:56:07.138Z,20.90
2018-09-17T20:58:34.844Z,20.40
2018-09-17T21:01:02.709Z,20.80
2018-09-17T21:03:30.369Z,20.30
2018-09-17T21:05:58.096Z,20.60
2018-09-17T21:08:25.854Z,20.80
2018-09-17T21:10:53.600Z,20.40
2018-09-17T21:13:21.425Z,20.60
2018-09-17T21:15:49.165Z,20.50
2018-09-17T21:18:16.908Z,20.60
2018-09-17T21:20:44.641Z,20.70
2018-09-17T21:23:12.376Z,20.50
2018-09-17T21:25:40.124Z,20.40
2018-09-17T21:28:08.067Z,20.40
2018-09-17T21:30:35.704Z,20.20
2018-09-17T21:33:03.450Z,20.20
2018-09-17T21:35:31.188Z,20.50
2018-09-17T21:37:58.984Z,20.40
2018-09-17T21:40:26.721Z,20.30
2018-09-17T21:42:54.511Z,20.30
2018-09-17T21:45:22.204Z,20.30
2018-09-17T21:47:49.923Z,20.00
2018-09-17T21:50:17.661Z,20.30
2018-09-17T21:52:45.413Z,20.10
2018-09-17T21:55:13.180Z,20.30
2018-09-17T21:57:40.903Z,20.00
2018-09-17T22:00:09.328Z,20.10
2018-09-17T22:02:37.079Z,19.80
2018-09-17T22:05:04.984Z,20.20
2018-09-17T22:07:32.805Z,19.60
2018-09-17T22:10:00.525Z,19.80
2018-09-17T22:12:28.277Z,19.50
2018-09-17T22:14:56.008Z,19.90
2018-09-17T22:17:23.829Z,19.70
2018-09-17T22:19:51.595Z,19.90
2018-09-17T22:22:19.289Z,19.80
2018-09-17T22:24:47.021Z,19.80
2018-09-17T22:27:14.729Z,19.40
2018-09-17T22:29:42.481Z,19.50
2018-09-17T22:32:10.208Z,19.50
2018-09-17T22:34:37.974Z,19.50
2018-09-17T22:37:05.671Z,19.60
2018-09-17T22:39:33.395Z,19.50
2018-09-17T22:42:01.164Z,19.70
2018-09-17T22:44:28.873Z,19.60
2018-09-17T22:46:56.660Z,19.60
2018-09-17T22:49:24.396Z,19.40
2018-09-17T22:51:52.184Z,19.50
2018-09-17T22:54:19.899Z,19.30
2018-09-17T22:56:47.637Z,19.40
2018-09-17T22:59:15.377Z,19.40
2018-09-17T23:01:44.575Z,19.50
2018-09-17T23:04:12.341Z,19.60
2018-09-17T23:06:40.084Z,19.50
2018-09-17T23:09:09.453Z,19.50
2018-09-17T23:11:37.174Z,19.30
2018-09-17T23:14:05.356Z,19.30
2018-09-17T23:16:33.161Z,19.60
2018-09-17T23:19:00.913Z,19.40
2018-09-17T23:21:28.641Z,19.30
2018-09-17T23:23:56.399Z,19.20
2018-09-17T23:26:24.123Z,19.20
2018-09-17T23:28:51.841Z,19.30
2018-09-17T23:31:19.601Z,19.50
2018-09-17T23:33:47.381Z,19.20
2018-09-17T23:36:15.107Z,19.30
2018-09-17T23:38:42.846Z,19.00
2018-09-17T23:41:10.612Z,19.10
2018-09-17T23:43:38.399Z,19.00
2018-09-17T23:46:06.158Z,18.80
2018-09-17T23:48:33.860Z,18.80
2018-09-17T23:51:01.588Z,18.70
2018-09-17T23:53:29.341Z,18.80
2018-09-17T23:55:57.099Z,18.70
2018-09-17T23:58:24.841Z,18.80
